createdAt,value
2019-01-17T00:00:51.962Z,3.70
2019-01-17T00:03:33.863Z,4.00
2019-01-17T00:06:26.016Z,3.80
2019-01-17T00:09:11.628Z,4.00
2019-01-17T00:11:55.360Z,4.00
2019-01-17T00:14:53.674Z,3.80
2019-01-17T00:17:43.059Z,3.70
2019-01-17T00:20:34.344Z,3.80
2019-01-17T00:23:17.223Z,3.70
2019-01-17T00:26:05.332Z,3.60
2019-01-17T00:28:57.648Z,3.90
2019-01-17T00:32:02.269Z,3.70
2019-01-17T00:34:57.867Z,3.90
2019-01-17T00:38:05.569Z,4.10
2019-01-17T00:40:57.932Z,3.90
2019-01-17T00:44:05.951Z,4.00
2019-01-17T00:47:04.583Z,4.00
2019-01-17T00:49:57.650Z,4.10
2019-01-17T00:52:45.909Z,3.90
2019-01-17T00:55:29.496Z,4.00
2019-01-17T00:58:17.528Z,3.80
2019-01-17T01:01:09.728Z,3.90
2019-01-17T01:04:14.467Z,3.80
2019-01-17T01:07:01.866Z,4.00
2019-01-17T01:09:51.828Z,3.80
2019-01-17T01:12:34.700Z,3.80
2019-01-17T01:15:24.579Z,3.90
2019-01-17T01:18:12.832Z,3.90
2019-01-17T01:20:54.724Z,3.80
2019-01-17T01:23:56.439Z,4.00
2019-01-17T01:26:49.491Z,3.90
2019-01-17T01:30:06.993Z,3.80
2019-01-17T01:32:45.263Z,3.80
2019-01-17T01:35:33.401Z,3.70
2019-01-17T01:38:21.412Z,3.90
2019-01-17T01:40:53.860Z,4.10
2019-01-17T01:44:01.682Z,4.00
2019-01-17T01:46:57.141Z,3.80
2019-01-17T01:49:46.570Z,4.00
2019-01-17T01:52:28.844Z,4.10
2019-01-17T01:54:59.391Z,3.90
2019-01-17T01:57:29.918Z,3.80
2019-01-17T02:00:00.464Z,3.80
2019-01-17T02:02:31.019Z,3.90
2019-01-17T02:05:01.564Z,3.90
2019-01-17T02:07:32.112Z,4.00
2019-01-17T02:10:02.680Z,3.90
2019-01-17T02:12:33.224Z,3.90
2019-01-17T02:15:03.777Z,3.80
2019-01-17T02:17:34.339Z,4.10
2019-01-17T02:20:05.208Z,4.00
2019-01-17T02:22:35.735Z,3.90
2019-01-17T02:25:07.575Z,3.80
2019-01-17T02:27:38.244Z,3.90
2019-01-17T02:30:09.297Z,4.00
2019-01-17T02:32:40.000Z,4.10
2019-01-17T02:35:10.542Z,4.00
2019-01-17T02:37:41.105Z,3.80
2019-01-17T02:40:12.789Z,3.80
2019-01-17T02:42:43.391Z,3.80
2019-01-17T02:45:15.071Z,3.80
2019-01-17T02:47:46.057Z,3.90
2019-01-17T02:50:16.609Z,4.00
2019-01-17T02:52:47.172Z,4.00
2019-01-17T02:55:17.715Z,3.70
2019-01-17T02:57:48.258Z,4.00
2019-01-17T03:00:18.881Z,3.90
2019-01-17T03:02:49.436Z,3.90
2019-01-17T03:05:19.998Z,3.90
2019-01-17T03:07:50.596Z,3.80
2019-01-17T03:10:21.119Z,3.70
2019-01-17T03:12:51.623Z,3.70
2019-01-17T03:15:22.193Z,3.80
2019-01-17T03:17:52.718Z,3.70
2019-01-17T03:20:23.276Z,3.80
2019-01-17T03:22:53.935Z,3.80
2019-01-17T03:25:24.505Z,3.60
2019-01-17T03:27:55.040Z,3.80
2019-01-17T03:30:25.566Z,3.70
2019-01-17T03:32:56.109Z,3.70
2019-01-17T03:35:26.625Z,3.70
2019-01-17T03:38:00.155Z,3.70
2019-01-17T03:40:30.744Z,3.70
2019-01-17T03:43:01.283Z,3.80
2019-01-17T03:45:31.814Z,3.60
2019-01-17T03:48:02.365Z,3.50
2019-01-17T03:50:32.909Z,3.50
2019-01-17T03:53:03.437Z,3.50
2019-01-17T03:55:34.296Z,3.60
2019-01-17T03:58:05.109Z,3.60
2019-01-17T04:00:35.635Z,3.30
2019-01-17T04:03:06.179Z,3.50
2019-01-17T04:05:36.754Z,3.40
2019-01-17T04:08:07.297Z,3.60
2019-01-17T04:10:37.875Z,3.40
2019-01-17T04:13:08.425Z,3.40
2019-01-17T04:15:39.583Z,3.40
2019-01-17T04:18:10.110Z,3.40
2019-01-17T04:20:40.697Z,3.30
2019-01-17T04:23:11.276Z,3.40
2019-01-17T04:25:41.874Z,3.10
2019-01-17T04:28:12.402Z,3.10
2019-01-17T04:30:42.961Z,3.30
2019-01-17T04:33:13.500Z,3.30
2019-01-17T04:35:44.056Z,3.10
2019-01-17T04:38:14.604Z,3.30
2019-01-17T04:40:45.172Z,3.10
2019-01-17T04:43:15.700Z,3.20
2019-01-17T04:45:46.268Z,3.00
2019-01-17T04:48:16.805Z,3.30
2019-01-17T04:50:47.393Z,3.20
2019-01-17T04:53:17.934Z,3.00
2019-01-17T04:55:48.464Z,3.10
2019-01-17T04:58:19.036Z,3.00
2019-01-17T05:00:49.994Z,3.10
2019-01-17T05:03:20.518Z,3.10
2019-01-17T05:05:51.740Z,3.20
2019-01-17T05:08:22.309Z,3.10
2019-01-17T05:10:52.856Z,2.90
2019-01-17T05:13:23.404Z,3.10
2019-01-17T05:15:54.429Z,3.00
2019-01-17T05:18:24.964Z,3.00
2019-01-17T05:20:55.516Z,3.20
2019-01-17T05:23:26.051Z,3.10
2019-01-17T05:25:57.202Z,3.10
2019-01-17T05:28:27.912Z,3.10
2019-01-17T05:30:58.474Z,3.00
2019-01-17T05:33:29.060Z,2.90
2019-01-17T05:36:00.779Z,3.00
2019-01-17T05:38:31.337Z,2.70
2019-01-17T05:41:01.991Z,3.10
2019-01-17T05:43:32.570Z,2.90
2019-01-17T05:46:03.478Z,2.90
2019-01-17T05:48:34.003Z,3.00
2019-01-17T05:51:04.896Z,3.10
2019-01-17T05:53:35.428Z,3.10
2019-01-17T05:56:06.027Z,2.80
2019-01-17T05:58:36.589Z,3.00
2019-01-17T06:01:07.137Z,2.80
2019-01-17T06:03:37.668Z,2.90
2019-01-17T06:06:08.239Z,3.00
2019-01-17T06:08:38.800Z,2.90
2019-01-17T06:11:09.330Z,2.80
2019-01-17T06:13:40.091Z,2.80
2019-01-17T06:16:10.631Z,2.90
2019-01-17T06:18:41.239Z,2.80
2019-01-17T06:21:11.767Z,2.60
2019-01-17T06:23:42.411Z,2.90
2019-01-17T06:26:12.955Z,3.00
2019-01-17T06:28:43.604Z,2.70
2019-01-17T06:31:14.125Z,2.70
2019-01-17T06:33:44.660Z,2.80
2019-01-17T06:36:15.207Z,2.70
2019-01-17T06:38:45.756Z,2.80
2019-01-17T06:41:16.340Z,2.90
2019-01-17T06:43:46.916Z,2.80
2019-01-17T06:46:17.517Z,2.90
2019-01-17T06:48:48.073Z,2.80
2019-01-17T06:51:18.636Z,2.80
2019-01-17T06:53:49.356Z,2.90
2019-01-17T06:56:19.869Z,2.80
2019-01-17T06:58:50.421Z,2.90
2019-01-17T07:01:20.980Z,2.90
2019-01-17T07:03:51.584Z,2.90
2019-01-17T07:06:22.130Z,2.80
2019-01-17T07:08:52.675Z,2.80
2019-01-17T07:11:23.615Z,2.90
2019-01-17T07:13:54.342Z,3.00
2019-01-17T07:16:24.918Z,2.80
2019-01-17T07:18:55.507Z,2.80
2019-01-17T07:21:26.076Z,2.90
2019-01-17T07:23:56.615Z,3.00
2019-01-17T07:26:27.216Z,3.00
2019-01-17T07:28:58.225Z,2.80
2019-01-17T07:31:28.936Z,3.00
2019-01-17T07:33:59.503Z,2.80
2019-01-17T07:36:30.351Z,3.00
2019-01-17T07:39:00.884Z,3.00
2019-01-17T07:41:31.423Z,2.80
2019-01-17T07:44:02.021Z,2.90
2019-01-17T07:46:32.679Z,2.80
2019-01-17T07:49:03.228Z,3.10
2019-01-17T07:51:33.775Z,3.00
2019-01-17T07:54:04.378Z,3.10
2019-01-17T07:56:35.389Z,3.10
2019-01-17T07:59:05.914Z,3.00
2019-01-17T08:01:36.663Z,3.00
2019-01-17T08:04:07.201Z,3.10
2019-01-17T08:06:37.819Z,3.10
2019-01-17T08:09:10.402Z,3.20
2019-01-17T08:11:40.975Z,3.20
2019-01-17T08:14:11.500Z,3.20
2019-01-17T08:16:42.140Z,2.90
2019-01-17T08:19:12.746Z,3.30
2019-01-17T08:21:43.393Z,3.00
2019-01-17T08:24:13.928Z,3.00
2019-01-17T08:26:44.580Z,3.20
2019-01-17T08:29:15.611Z,3.40
2019-01-17T08:31:46.237Z,3.50
2019-01-17T08:34:16.796Z,3.30
2019-01-17T08:36:47.364Z,3.50
2019-01-17T08:39:17.920Z,3.30
2019-01-17T08:41:48.503Z,3.30
2019-01-17T08:44:19.242Z,3.40
2019-01-17T08:46:49.808Z,3.30
2019-01-17T08:49:20.350Z,3.40
2019-01-17T08:51:50.905Z,3.30
2019-01-17T08:54:21.498Z,3.30
2019-01-17T08:56:52.142Z,3.00
2019-01-17T08:59:22.910Z,3.60
2019-01-17T09:01:53.473Z,3.40
2019-01-17T09:04:24.180Z,3.40
2019-01-17T09:06:54.948Z,3.50
2019-01-17T09:09:25.500Z,3.40
2019-01-17T09:11:56.317Z,3.70
2019-01-17T09:14:27.007Z,3.70
2019-01-17T09:16:57.572Z,3.50
2019-01-17T09:19:28.143Z,3.80
2019-01-17T09:21:58.717Z,3.80
2019-01-17T09:24:29.440Z,3.80
2019-01-17T09:27:00.105Z,3.90
2019-01-17T09:29:30.856Z,3.90
2019-01-17T09:32:01.365Z,3.90
2019-01-17T09:34:31.959Z,3.80
2019-01-17T09:37:02.527Z,3.90
2019-01-17T09:39:33.511Z,3.70
2019-01-17T09:42:04.110Z,3.60
2019-01-17T09:44:34.860Z,3.70
2019-01-17T09:47:05.972Z,3.80
2019-01-17T09:49:36.668Z,3.80
2019-01-17T09:52:07.387Z,4.00
2019-01-17T09:54:38.030Z,4.10
2019-01-17T09:57:08.629Z,4.00
2019-01-17T09:59:39.284Z,4.00
2019-01-17T10:02:09.895Z,3.90
2019-01-17T10:04:40.535Z,4.10
2019-01-17T10:07:11.135Z,4.40
2019-01-17T10:09:41.699Z,4.60
2019-01-17T10:12:12.320Z,4.70
2019-01-17T10:14:42.930Z,4.70
2019-01-17T10:17:36.328Z,5.10
2019-01-17T10:20:32.701Z,5.10
2019-01-17T10:23:40.883Z,4.80
2019-01-17T10:26:35.161Z,5.10
2019-01-17T10:29:45.253Z,4.70
2019-01-17T10:32:54.517Z,4.60
2019-01-17T10:36:15.105Z,4.30
2019-01-17T10:38:56.000Z,4.30
2019-01-17T10:41:54.912Z,4.20
2019-01-17T10:44:49.885Z,4.20
2019-01-17T10:47:46.370Z,4.50
2019-01-17T10:51:13.213Z,4.30
2019-01-17T10:54:12.168Z,4.60
2019-01-17T10:57:25.477Z,4.40
2019-01-17T11:00:38.888Z,4.40
2019-01-17T11:03:38.553Z,4.20
2019-01-17T11:07:08.340Z,4.60
2019-01-17T11:10:22.742Z,4.40
2019-01-17T11:13:24.748Z,4.70
2019-01-17T11:16:16.324Z,4.50
2019-01-17T11:19:11.393Z,4.60
2019-01-17T11:22:14.776Z,4.30
2019-01-17T11:25:25.429Z,4.40
2019-01-17T11:28:43.408Z,4.30
2019-01-17T11:32:00.139Z,4.30
2019-01-17T11:34:59.787Z,4.30
2019-01-17T11:38:00.640Z,4.40
2019-01-17T11:40:52.849Z,4.50
2019-01-17T11:44:14.219Z,4.50
2019-01-17T11:47:15.656Z,4.30
2019-01-17T11:50:30.299Z,4.30
2019-01-17T11:53:37.979Z,4.50
2019-01-17T11:56:40.881Z,4.30
2019-01-17T11:59:45.776Z,4.40
2019-01-17T12:02:38.995Z,4.30
2019-01-17T12:05:05.863Z,4.20
2019-01-17T12:07:36.438Z,4.40
2019-01-17T12:10:07.504Z,4.20
2019-01-17T12:12:38.408Z,4.10
2019-01-17T12:15:10.055Z,4.20
2019-01-17T12:17:40.669Z,4.10
2019-01-17T12:20:11.217Z,4.10
2019-01-17T12:22:41.802Z,4.20
2019-01-17T12:25:12.343Z,3.90
2019-01-17T12:27:42.977Z,4.10
2019-01-17T12:30:15.004Z,4.00
2019-01-17T12:32:45.576Z,4.10
2019-01-17T12:35:16.159Z,4.10
2019-01-17T12:37:48.320Z,4.10
2019-01-17T12:40:18.980Z,4.10
2019-01-17T12:42:49.783Z,4.20
2019-01-17T12:45:20.343Z,4.10
2019-01-17T12:47:50.893Z,4.30
2019-01-17T12:50:21.482Z,4.20
2019-01-17T12:52:52.077Z,4.20
2019-01-17T12:55:22.656Z,4.10
2019-01-17T12:57:53.198Z,4.30
2019-01-17T13:00:23.888Z,4.00
2019-01-17T13:02:54.532Z,4.00
2019-01-17T13:05:25.484Z,4.10
2019-01-17T13:07:56.115Z,4.10
2019-01-17T13:10:26.644Z,4.00
2019-01-17T13:12:57.207Z,4.20
2019-01-17T13:15:27.775Z,3.90
2019-01-17T13:17:58.357Z,3.80
2019-01-17T13:20:28.970Z,4.00
2019-01-17T13:22:59.561Z,3.90
2019-01-17T13:25:30.148Z,4.00
2019-01-17T13:28:00.737Z,3.80
2019-01-17T13:30:31.296Z,4.00
2019-01-17T13:33:01.851Z,3.90
2019-01-17T13:35:32.388Z,3.90
2019-01-17T13:38:02.955Z,3.70
2019-01-17T13:40:33.499Z,3.70
2019-01-17T13:43:04.087Z,4.00
2019-01-17T13:45:34.649Z,3.80
2019-01-17T13:48:05.652Z,3.90
2019-01-17T13:50:36.249Z,3.80
2019-01-17T13:53:06.799Z,3.70
2019-01-17T13:55:37.343Z,3.80
2019-01-17T13:58:07.895Z,3.90
2019-01-17T14:00:50.204Z,3.80
2019-01-17T14:03:20.772Z,4.00
2019-01-17T14:05:51.410Z,4.00
2019-01-17T14:08:21.923Z,3.80
2019-01-17T14:10:52.524Z,3.80
2019-01-17T14:13:23.095Z,3.70
2019-01-17T14:15:53.932Z,3.80
2019-01-17T14:18:27.847Z,3.70
2019-01-17T14:20:56.663Z,3.80
2019-01-17T14:23:27.231Z,3.70
2019-01-17T14:25:57.783Z,3.70
2019-01-17T14:28:28.348Z,3.70
2019-01-17T14:30:59.045Z,3.60
2019-01-17T14:33:29.872Z,3.60
2019-01-17T14:36:00.424Z,3.60
2019-01-17T14:38:31.002Z,3.80
2019-01-17T14:41:01.578Z,3.70
2019-01-17T14:43:32.116Z,3.60
2019-01-17T14:46:02.676Z,4.00
2019-01-17T14:48:33.273Z,3.70
2019-01-17T14:51:03.848Z,4.00
2019-01-17T14:53:34.432Z,3.70
2019-01-17T14:56:05.017Z,3.90
2019-01-17T14:58:35.535Z,3.60
2019-01-17T15:01:06.353Z,3.90
2019-01-17T15:03:36.892Z,3.70
2019-01-17T15:06:07.448Z,3.80
2019-01-17T15:08:37.987Z,3.60
2019-01-17T15:11:08.534Z,3.50
2019-01-17T15:13:39.055Z,3.70
2019-01-17T15:16:09.656Z,3.70
2019-01-17T15:18:40.201Z,3.30
2019-01-17T15:21:10.759Z,3.30
2019-01-17T15:23:41.297Z,3.40
2019-01-17T15:26:11.856Z,3.30
2019-01-17T15:28:42.424Z,3.50
2019-01-17T15:31:13.289Z,3.40
2019-01-17T15:33:44.125Z,3.40
2019-01-17T15:36:14.669Z,3.40
2019-01-17T15:38:45.227Z,3.40
2019-01-17T15:41:15.755Z,3.40
2019-01-17T15:43:46.476Z,3.30
2019-01-17T15:46:17.032Z,3.40
2019-01-17T15:48:47.574Z,3.50
2019-01-17T15:51:18.204Z,3.40
2019-01-17T15:53:48.780Z,3.40
2019-01-17T15:56:19.390Z,3.30
2019-01-17T15:58:50.107Z,3.20
2019-01-17T16:01:20.683Z,3.40
2019-01-17T16:03:51.620Z,3.20
2019-01-17T16:06:22.179Z,3.20
2019-01-17T16:08:52.700Z,3.30
2019-01-17T16:11:23.254Z,3.40
2019-01-17T16:13:54.040Z,3.30
2019-01-17T16:16:24.608Z,3.20
2019-01-17T16:18:55.175Z,3.20
2019-01-17T16:21:25.765Z,3.30
2019-01-17T16:23:56.325Z,3.10
2019-01-17T16:26:26.891Z,3.00
2019-01-17T16:28:57.444Z,2.90
2019-01-17T16:31:28.010Z,2.80
2019-01-17T16:33:58.550Z,2.70
2019-01-17T16:36:29.272Z,2.70
2019-01-17T16:38:59.846Z,3.10
2019-01-17T16:41:31.128Z,3.20
2019-01-17T16:44:01.812Z,3.20
2019-01-17T16:46:32.353Z,3.10
2019-01-17T16:49:03.391Z,3.30
2019-01-17T16:51:34.250Z,3.30
2019-01-17T16:54:04.856Z,3.40
2019-01-17T16:56:35.609Z,3.20
2019-01-17T16:59:06.188Z,3.30
2019-01-17T17:01:36.895Z,3.40
2019-01-17T17:04:07.528Z,3.30
2019-01-17T17:06:38.105Z,3.40
2019-01-17T17:09:09.489Z,3.40
2019-01-17T17:11:40.464Z,3.50
2019-01-17T17:14:11.251Z,3.60
2019-01-17T17:16:41.852Z,3.50
2019-01-17T17:19:12.403Z,3.70
2019-01-17T17:21:42.967Z,3.50
2019-01-17T17:24:13.529Z,3.70
2019-01-17T17:26:44.076Z,3.50
2019-01-17T17:29:14.624Z,3.60
2019-01-17T17:31:45.236Z,3.70
2019-01-17T17:34:16.080Z,3.50
2019-01-17T17:36:46.935Z,3.50
2019-01-17T17:39:17.513Z,3.40
2019-01-17T17:41:48.115Z,3.40
2019-01-17T17:44:19.167Z,3.40
2019-01-17T17:46:49.751Z,3.30
2019-01-17T17:49:20.390Z,3.30
2019-01-17T17:51:50.968Z,3.40
2019-01-17T17:54:21.605Z,3.20
2019-01-17T17:56:52.196Z,3.40
2019-01-17T17:59:22.784Z,3.30
2019-01-17T18:02:06.369Z,3.40
2019-01-17T18:04:36.941Z,3.60
2019-01-17T18:07:07.501Z,3.40
2019-01-17T18:09:38.181Z,3.30
2019-01-17T18:12:08.856Z,3.50
2019-01-17T18:14:39.482Z,3.50
2019-01-17T18:17:10.595Z,3.60
2019-01-17T18:19:41.270Z,3.70
2019-01-17T18:22:11.917Z,3.60
2019-01-17T18:24:42.465Z,3.60
2019-01-17T18:27:13.055Z,3.60
2019-01-17T18:29:43.643Z,3.50
2019-01-17T18:32:14.220Z,3.80
2019-01-17T18:34:45.040Z,3.70
2019-01-17T18:37:15.998Z,3.60
2019-01-17T18:39:46.537Z,3.80
2019-01-17T18:42:17.161Z,3.60
2019-01-17T18:44:47.744Z,3.50
2019-01-17T18:47:18.286Z,3.50
2019-01-17T18:49:48.859Z,3.70
2019-01-17T18:52:19.448Z,3.40
2019-01-17T18:54:50.051Z,3.50
2019-01-17T18:57:20.612Z,3.40
2019-01-17T18:59:51.185Z,3.40
2019-01-17T19:02:21.767Z,3.30
2019-01-17T19:04:52.345Z,3.50
2019-01-17T19:07:22.872Z,3.50
2019-01-17T19:09:53.427Z,3.40
2019-01-17T19:12:24.323Z,3.40
2019-01-17T19:14:54.910Z,3.70
2019-01-17T19:17:25.460Z,3.50
2019-01-17T19:19:56.020Z,3.40
2019-01-17T19:22:26.616Z,3.70
2019-01-17T19:24:57.183Z,3.20
2019-01-17T19:27:27.811Z,3.40
2019-01-17T19:29:58.393Z,3.40
2019-01-17T19:32:28.982Z,3.60
2019-01-17T19:34:59.584Z,3.60
2019-01-17T19:37:30.137Z,3.50
2019-01-17T19:40:00.702Z,3.60
2019-01-17T19:42:31.299Z,3.50
2019-01-17T19:45:01.851Z,3.80
2019-01-17T19:47:32.410Z,3.80
2019-01-17T19:50:03.422Z,3.50
2019-01-17T19:52:34.014Z,3.80
2019-01-17T19:55:05.108Z,3.80
2019-01-17T19:57:35.622Z,3.80
2019-01-17T20:00:08.838Z,3.80
2019-01-17T20:02:39.423Z,3.90
2019-01-17T20:05:11.287Z,3.80
2019-01-17T20:07:41.905Z,4.00
2019-01-17T20:10:15.517Z,3.80
2019-01-17T20:12:46.100Z,4.10
2019-01-17T20:15:16.944Z,3.80
2019-01-17T20:17:47.638Z,3.20
2019-01-17T20:20:18.688Z,3.10
2019-01-17T20:22:49.253Z,2.90
2019-01-17T20:25:19.903Z,2.80
2019-01-17T20:30:40.087Z,3.10
2019-01-17T20:33:10.657Z,3.20
2019-01-17T20:35:41.227Z,3.10
2019-01-17T20:38:11.962Z,3.30
2019-01-17T20:40:42.510Z,3.20
2019-01-17T20:43:13.279Z,3.20
2019-01-17T20:45:43.949Z,3.30
2019-01-17T20:48:14.455Z,3.60
2019-01-17T20:50:45.201Z,3.30
2019-01-17T20:53:17.505Z,3.40
2019-01-17T20:55:48.124Z,3.40
2019-01-17T20:58:19.040Z,3.50
2019-01-17T21:01:16.491Z,3.50
2019-01-17T21:03:47.047Z,3.50
2019-01-17T21:06:17.696Z,3.10
2019-01-17T21:08:48.360Z,3.50
2019-01-17T21:11:18.879Z,3.50
2019-01-17T21:13:49.592Z,3.50
2019-01-17T21:16:20.164Z,3.40
2019-01-17T21:18:50.803Z,3.40
2019-01-17T21:21:21.555Z,3.40
2019-01-17T21:23:55.003Z,3.30
2019-01-17T21:26:25.799Z,3.40
2019-01-17T21:28:56.757Z,3.30
2019-01-17T21:31:27.323Z,3.10
2019-01-17T21:33:57.892Z,3.30
2019-01-17T21:36:28.506Z,3.20
2019-01-17T21:38:59.059Z,3.50
2019-01-17T21:41:29.654Z,3.20
2019-01-17T21:44:00.247Z,3.10
2019-01-17T21:46:30.794Z,3.10
2019-01-17T21:49:01.477Z,3.20
2019-01-17T21:51:32.137Z,3.40
2019-01-17T21:54:02.715Z,3.10
2019-01-17T21:56:33.353Z,3.30
2019-01-17T21:59:03.952Z,3.30
2019-01-17T22:01:34.587Z,3.30
2019-01-17T22:04:05.249Z,3.30
2019-01-17T22:06:36.045Z,3.30
2019-01-17T22:09:08.293Z,3.20
2019-01-17T22:11:40.957Z,3.40
2019-01-17T22:14:11.483Z,3.40
2019-01-17T22:16:42.048Z,3.40
2019-01-17T22:19:12.639Z,3.20
2019-01-17T22:21:44.676Z,3.30
2019-01-17T22:24:15.262Z,3.30
2019-01-17T22:26:46.436Z,3.30
2019-01-17T22:29:16.981Z,3.40
2019-01-17T22:31:48.244Z,3.50
2019-01-17T22:34:18.954Z,3.30
2019-01-17T22:36:49.728Z,3.50
2019-01-17T22:39:20.314Z,3.40
2019-01-17T22:41:50.908Z,3.40
2019-01-17T22:44:21.544Z,3.30
2019-01-17T22:46:52.151Z,3.10
2019-01-17T22:49:22.760Z,3.10
2019-01-17T22:51:54.405Z,2.70
2019-01-17T22:54:25.167Z,2.60
2019-01-17T22:56:55.766Z,2.30
2019-01-17T22:59:26.371Z,2.20
2019-01-17T23:01:57.075Z,2.10
2019-01-17T23:04:27.649Z,2.00
2019-01-17T23:06:58.252Z,1.70
2019-01-17T23:09:28.856Z,1.60
2019-01-17T23:11:59.601Z,1.60
2019-01-17T23:14:30.376Z,1.60
2019-01-17T23:17:00.964Z,1.40
2019-01-17T23:19:31.563Z,1.20
2019-01-17T23:22:02.083Z,1.30
2019-01-17T23:24:32.630Z,1.30
2019-01-17T23:27:03.204Z,1.10
2019-01-17T23:29:34.034Z,1.00
2019-01-17T23:32:05.005Z,1.10
2019-01-17T23:34:35.828Z,1.00
2019-01-17T23:37:06.426Z,0.80
2019-01-17T23:39:36.975Z,0.90
2019-01-17T23:42:07.568Z,0.80
2019-01-17T23:44:38.205Z,0.90
2019-01-17T23:47:08.732Z,0.90
2019-01-17T23:49:39.276Z,1.00
2019-01-17T23:52:09.823Z,1.30
2019-01-17T23:54:40.401Z,1.10
2019-01-17T23:57:10.972Z,1.50
2019-01-17T23:59:41.572Z,1.50
